DENE EDLW-EDLW

Flight info

Callsign DENE
Flight time N/A
Altitude
Route DCT
Aircraft C172

Departure

Time 2026-04-30 20:12
Airport Dortmund Airport (EDLW)

Arrival

Time N/A
Airport Dortmund Airport (EDLW)
Time Latitude Longitude Altitude Speed Heading
2026-04-30 19:56 51.51254 7.60556 457 ft 0 kts 103°
2026-04-30 20:03 51.51259 7.60568 457 ft 10 kts 34°
2026-04-30 20:03 51.51346 7.60744 440 ft 12 kts 102°
2026-04-30 20:04 51.51349 7.60750 428 ft 0 kts 158°
2026-04-30 20:05 51.51199 7.60400 458 ft 1 kts 194°
2026-04-30 20:05 51.51205 7.60402 456 ft 0 kts 188°
2026-04-30 20:06 51.51198 7.60379 457 ft 9 kts 263°
2026-04-30 20:06 51.51172 7.60267 455 ft 10 kts 233°
2026-04-30 20:07 51.51168 7.60179 453 ft 11 kts 313°
2026-04-30 20:07 51.51275 7.60256 433 ft 34 kts 39°
2026-04-30 20:07 51.51472 7.60714 421 ft 19 kts 58°
2026-04-30 20:08 51.51550 7.60865 421 ft 14 kts 313°
2026-04-30 20:08 51.51528 7.60712 417 ft 14 kts 266°
2026-04-30 20:08 51.51530 7.60665 416 ft 0 kts 291°
2026-04-30 20:09 51.51542 7.60637 415 ft 11 kts 314°
2026-04-30 20:10 51.51671 7.60768 418 ft 6 kts 59°
2026-04-30 20:10 51.51672 7.60770 418 ft 0 kts 59°
2026-04-30 20:11 51.51673 7.60774 418 ft 6 kts 60°
2026-04-30 20:11 51.51795 7.61117 416 ft 63 kts 64°
2026-04-30 20:12 51.52386 7.62747 733 ft 93 kts 69°
2026-04-30 20:12 51.52680 7.63616 1137 ft 70 kts 62°
2026-04-30 20:12 51.52802 7.64558 1115 ft 98 kts 107°
2026-04-30 20:13 51.52358 7.65309 1394 ft 93 kts 149°
2026-04-30 20:13 51.51717 7.65529 1542 ft 109 kts 185°
2026-04-30 20:13 51.51157 7.64584 1647 ft 131 kts 242°
2026-04-30 20:13 51.50785 7.63166 1319 ft 136 kts 243°
2026-04-30 20:14 51.50328 7.61972 923 ft 120 kts 233°
2026-04-30 20:14 51.50004 7.60990 480 ft 92 kts 243°
2026-04-30 20:14 51.49754 7.60232 438 ft 67 kts 206°